General Aviation Weather

Text Reports

Enter one or more of the following location identifiers separated by a space:

Zip Code, Four-Character ICAO or Three-Character IATA airport codes.

METAR - Aviation Routine Weather Report
KHEI - Hettinger, North Dakota
Updated at 7:53 PM GMT on July 24, 2014 (1:53 PM MDT):
METAR KHEI 241953Z AUTO 15012G19KT 10SM CLR 29/19 A2978 RMK AO2 SLP063 T02890189
TAF - Terminal Area Forecast
KHEI - Hettinger, North Dakota
Updated at 7:53 PM GMT on July 24, 2014 (1:53 PM MDT):
No TAF is currently available for this location.
Decoded:
No decoded TAF is available.
PIREP - Pilot Weather Report
KHEI - Hettinger, North Dakota
Updated at 7:53 PM GMT on July 24, 2014 (1:53 PM MDT):
No PIREP is currently available for this location.
AIRMET - Airmens Meteorological Information
KHEI - Hettinger, North Dakota
Updated at 7:53 PM GMT on July 24, 2014 (1:53 PM MDT):
No AIRMET is currently available for this location.
SIGMET - Significant Meteorological Information
KHEI - Hettinger, North Dakota
Updated at 7:53 PM GMT on July 24, 2014 (1:53 PM MDT):
No SIGMET is currently available for this location.
NOTAM - Notice to Airmen
KHEI - Hettinger, North Dakota
Updated at 7:53 PM GMT on July 24, 2014 (1:53 PM MDT):
No NOTAM is currently available for this location.
Forecast Area
KHEI - Hettinger, North Dakota
Updated at 7:53 PM GMT on July 24, 2014 (1:53 PM MDT):
No NOTAM is currently available for this location.
Aviation Weather Maps